WEATHER DATA

YESTERDAY
Time Temp. Dewp. Hum. Wind dir Wind speed Wind gust Bar. 1h Prec. 24h Prec.
00:01 15 3.2 45 349 0.3 1.4 1017.3 0.0000 0.0000
00:11 15 3.2 45 341 0.3 1.4 1017.3 0.0000 0.0000
00:20 15 2.9 44 171 0.3 1.1 1017.3 0.0000 0.0000
00:31 15.2 3.4 45 305 0.3 1.4 1017.4 0.0000 0.0000
00:41 15.1 3.3 45 225 0.3 1.1 1017.4 0.0000 0.0000
00:51 15.3 3.4 45 188 0.8 2.2 1017.4 0.0000 0.0000
01:01 15.8 3.3 43 180 0.8 1.7 1017.4 0.0000 0.0000
01:11 16.2 2.9 41 170 0.8 2.2 1017.5 0.0000 0.0000
01:21 16.8 3.1 40 171 0.8 1.7 1017.5 0.0000 0.0000
01:31 16.7 3.4 41 167 0.8 1.1 1017.6 0.0000 0.0000
01:41 16.2 3.9 44 206 0.3 1.1 1017.6 0.0000 0.0000
01:51 15.6 4 46 195 0.3 1.1 1017.5 0.0000 0.0000
02:01 15.1 4.2 48 217 0.3 0.8 1017.5 0.0000 0.0000
02:11 14.7 3.8 48 180 0.8 1.7 1017.5 0.0000 0.0000
02:21 14.9 4 48 169 1.1 2.5 1017.5 0.0000 0.0000
02:31 15.2 3.4 45 176 1.1 2.5 1017.5 0.0000 0.0000
02:41 15.8 2.9 42 173 1.1 2.2 1017.5 0.0000 0.0000
02:52 16.5 2.5 39 165 0.8 1.7 1017.5 0.0000 0.0000
03:01 16.5 3.2 41 170 0.8 1.7 1017.6 0.0000 0.0000
03:11 16.3 3 41 176 0.3 1.4 1017.6 0.0000 0.0000
03:22 16.3 2 38 154 0.8 2.2 1017.6 0.0000 0.0000
03:31 16.6 2.2 38 168 0.8 1.4 1017.6 0.0000 0.0000
03:41 16.7 2.3 38 171 0.8 1.4 1017.6 0.0000 0.0000
03:51 16.7 2 37 164 0.8 3.3 1017.5 0.0000 0.0000
04:02 16.8 1.7 36 173 1.1 3.3 1017.5 0.0000 0.0000
04:11 16.8 2 37 115 0.8 1.4 1017.6 0.0000 0.0000
04:21 16.6 2.2 38 90 0.3 1.7 1017.7 0.0000 0.0000
04:32 16.3 2 38 215 0.3 1.4 1017.7 0.0000 0.0000
04:42 16.1 2.2 39 180 0.3 1.4 1017.6 0.0000 0.0000
04:51 16 2.1 39 135 0.3 1.1 1017.7 0.0000 0.0000
05:02 15.5 1.6 39 163 0.3 1.1 1017.6 0.0000 0.0000
05:12 15.2 2.4 42 190 0.3 1.1 1017.6 0.0000 0.0000
05:31 15.2 1 38 184 1.1 3.3 1017.6 0.0000 0.0000
05:42 15.6 1 37 180 0.8 2.5 1017.5 0.0000 0.0000
05:52 15.9 1.2 37 188 0.8 1.7 1017.5 0.0000 0.0000
06:02 16.1 1 36 194 0.3 1.4 1017.5 0.0000 0.0000
06:12 16.2 1.1 36 90 0.8 2.5 1017.4 0.0000 0.0000
06:22 16.4 0.9 35 207 0.8 1.7 1017.5 0.0000 0.0000
06:32 16.5 1 35 291 1.1 3.6 1017.4 0.0000 0.0000
06:42 16.6 1.1 35 270 0.8 2.5 1017.4 0.0000 0.0000
06:52 16.7 1.2 35 150 0.3 2.2 1017.4 0.0000 0.0000
07:02 16.6 1.1 35 205 0.8 1.7 1017.4 0.0000 0.0000
07:12 16.5 1 35 198 0.3 1.1 1017.5 0.0000 0.0000
07:23 16 1.3 37 180 0.8 2.5 1017.4 0.0000 0.0000
07:32 16.1 1 36 173 0.3 1.4 1017.4 0.0000 0.0000
07:42 16.4 1.3 36 54 0.3 2.2 1017.5 0.0000 0.0000
07:52 16.6 1.5 36 326 0.8 1.7 1017.5 0.0000 0.0000
08:03 16.8 1.7 36 323 0.3 1.4 1017.6 0.0000 0.0000
08:12 17 1.8 36 347 0.3 1.4 1017.6 0.0000 0.0000
08:22 17.1 2.3 37 336 0.3 1.1 1017.7 0.0000 0.0000
08:33 17.2 2.8 38 56 0.3 0.8 1017.8 0.0000 0.0000
08:43 17.4 3.3 39 5 0.3 0.8 1017.7 0.0000 0.0000
08:52 17.5 4.1 41 317 0.8 1.4 1017.9 0.0000 0.0000
09:02 17.5 4.8 43 315 0.8 1.7 1017.9 0.0000 0.0000
09:13 17.7 5 43 311 1.1 2.2 1018 0.0000 0.0000
09:22 17.5 4.8 43 323 1.1 1.7 1018.1 0.0000 0.0000
09:32 17.4 4.7 43 321 1.1 1.7 1018.2 0.0000 0.0000
09:43 17.5 4.1 41 312 0.8 2.5 1018.1 0.0000 0.0000
09:53 18.1 3.9 39 315 1.1 2.5 1018 0.0000 0.0000
10:02 17.8 4 40 270 0.3 1.1 1018.1 0.0000 0.0000
10:13 18.5 4.7 40 320 0.3 1.1 1018.2 0.0000 0.0000
10:23 19.1 4.5 38 293 1.1 2.2 1018.3 0.0000 0.0000
10:33 18.9 4.3 38 315 1.4 3.3 1018.3 0.0000 0.0000
10:42 18.6 4.4 39 318 1.1 3.3 1018.5 0.0000 0.0000
10:53 18.5 4.7 40 333 1.1 2.2 1018.5 0.0000 0.0000
11:03 18.5 5 41 315 1.1 3.3 1018.6 0.0000 0.0000
11:13 18 4.9 42 304 1.7 5 1018.8 0.0000 0.0000
11:23 17.9 5.5 44 321 1.1 2.5 1018.9 0.0000 0.0000
11:33 17.9 5.8 45 312 1.1 3.6 1019 0.0000 0.0000
11:43 17.8 5.4 44 321 1.4 4.7 1019 0.0000 0.0000
11:53 17.4 5.4 45 321 1.7 4.4 1019.2 0.0000 0.0000
12:03 16.8 5.4 47 321 1.7 3.9 1019.2 0.0000 0.0000
12:13 16.5 5.8 49 312 1.4 4.7 1019.3 0.0000 0.0000
12:23 16.3 6.4 52 305 1.1 2.5 1019.4 0.0000 0.0000
12:34 16.2 6.9 54 320 1.1 2.8 1019.4 0.0000 0.0000
12:43 16.4 7.3 55 312 1.4 2.5 1019.3 0.0000 0.0000
12:53 17.3 8.2 55 291 0.8 1.7 1019.2 0.0000 0.0000
13:03 17.9 7.9 52 309 0.8 1.7 1019.2 0.0000 0.0000
13:13 17.9 7.6 51 308 1.1 1.7 1019.2 0.0000 0.0000
13:23 18 7.4 50 316 1.4 2.8 1019.3 0.0000 0.0000
13:33 18.1 7.8 51 312 1.4 2.8 1019.2 0.0000 0.0000
13:44 18.3 8 51 315 1.1 2.5 1019.2 0.0000 0.0000
13:53 18.2 7.9 51 313 1.4 2.5 1019.2 0.0000 0.0000
14:03 18.8 8.5 51 308 1.4 3.3 1019.3 0.0000 0.0000
14:14 18.9 8 49 313 1.4 2.8 1019.3 0.0000 0.0000
14:24 19.7 8.7 49 316 1.4 2.8 1019.2 0.0000 0.0000
14:33 20.2 7.9 45 313 1.7 3.3 1019.1 0.0000 0.0000
14:43 19.9 8 46 316 1.7 2.8 1019.3 0.0000 0.0000
14:54 18.4 7.2 48 322 2.2 4.4 1019.2 0.0000 0.0000
15:04 17.3 7.6 53 314 2.2 4.7 1019.4 0.0000 0.0000
15:13 16.6 7.8 56 319 2.5 5.3 1019.4 0.0000 0.0000
15:24 16.5 8.2 58 325 1.4 3.3 1019.4 0.0000 0.0000
15:34 15.9 8.2 60 317 2.2 5 1019.5 0.0000 0.0000
15:44 15.3 8.1 62 318 1.7 4.4 1019.7 0.0000 0.0000
15:53 14.9 8.2 64 303 1.4 2.8 1019.5 0.0000 0.0000
16:04 14.7 8.4 66 310 1.4 3.6 1019.4 0.0000 0.0000
16:14 14.2 8.4 68 315 1.4 3.6 1019.7 0.0000 0.0000
16:24 13.9 8.7 71 313 1.4 4.4 1019.3 0.0000 0.0000
16:34 13.6 8.7 72 308 1.1 2.8 1019.1 0.0000 0.0000
16:44 13.2 8.7 74 317 1.4 2.5 1019.4 0.0000 0.0000
16:54 13.1 9 76 283 0.8 1.7 1019.4 0.0000 0.0000
17:04 12.8 8.7 76 322 1.1 4.4 1019.5 0.0000 0.0000
17:14 12.8 9.1 78 311 1.4 4.4 1019.4 0.1010 0.1010
17:24 12.8 9.3 79 310 0.8 2.2 1019.5 0.1010 0.1010
17:34 12.7 9 78 298 0.8 3.3 1019.4 0.1010 0.1010
17:44 12.7 9.2 79 318 0.8 2.2 1019.4 0.1010 0.1010
17:54 12.7 9 78 315 0.8 1.7 1019.4 0.1010 0.1010
18:04 12.7 9.2 79 191 0.8 1.7 1019.4 0.1010 0.1010
18:14 12.8 8.9 77 270 0.3 1.7 1019.3 0.0000 0.1010
18:24 13 8.9 76 220 0.3 1.4 1019.2 0.0000 0.1010
18:34 13.3 9.4 77 209 0.3 1.7 1019.2 0.0000 0.1010
18:44 13.5 9.4 76 190 0.8 2.2 1019.1 0.0000 0.1010
18:55 13.6 9.3 75 193 0.3 1.1 1019 0.0000 0.1010
19:04 13.7 9.4 75 210 0.3 1.4 1019 0.0000 0.1010
19:14 13.7 9.2 74 225 0.3 1.1 1019 0.0000 0.1010
19:25 13.7 9 73 326 0.8 2.2 1019.1 0.0000 0.1010
19:35 13.6 9.1 74 321 0.3 1.1 1019.1 0.0000 0.1010
19:44 13.7 9.2 74 315 0.3 1.7 1019.1 0.0000 0.1010
19:54 13.7 9.2 74 315 0.8 1.7 1019.1 0.0000 0.1010
20:05 13.6 9.1 74 270 0.3 1.4 1019.1 0.0000 0.1010
20:15 13.4 8.9 74 299 0.8 2.5 1019.1 0.0000 0.1010
20:24 13.2 8.9 75 174 0.3 1.1 1019.1 0.0000 0.1010
20:45 12.4 8.3 76 315 0.3 1.1 1019.3 0.0000 0.1010
20:55 12 8.1 77 321 0.3 1.1 1019.7 0.0000 0.1010
21:05 11.6 7.9 78 0 0.8 1019.9 0.0000 0.1010
21:25 11 7.5 79 318 0.3 1.1 1020.1 0.0000 0.1010
21:35 10.7 7.4 80 270 0.3 1.1 1020.2 0.0000 0.1010
21:45 10.5 7.4 81 0 0.3 1.1 1020.2 0.0000 0.1010
21:55 10.4 7.5 82 139 0.3 1.1 1020.3 0.0000 0.1010
22:05 10.4 7.5 82 270 0.3 1.1 1020.4 0.0000 0.1010
22:15 10.2 7.4 83 315 0.3 0.8 1020.5 0.0000 0.1010
22:25 10.4 7.8 84 149 0.3 1.7 1020.5 0.0000 0.1010
22:35 10.4 7.8 84 156 0.3 0.8 1020.7 0.0000 0.1010
22:45 10.3 7.7 84 206 0.3 1.4 1020.6 0.0000 0.1010
22:55 10.4 8 85 183 0.8 2.8 1020.5 0.0000 0.1010
23:05 10.5 8.1 85 270 0.3 1.1 1020.6 0.0000 0.1010
23:15 10.4 8 85 225 0.3 1.1 1020.7 0.0000 0.1010
23:26 10.3 7.9 85 180 0.8 1.7 1020.7 0.0000 0.1010
23:35 10.4 8 85 180 0.8 2.2 1020.7 0.0000 0.1010
23:45 10.5 8.3 86 180 0.3 1.1 1020.5 0.0000 0.1010
23:55 10.6 8.4 86 174 0.3 1.4 1020.5 0.0000 0.1010

DAY STATISTIC

2018-04-23
TEMPERATURE
AVERAGE
15.3
HIGH
20.2
14:33
LOW
10.2
22:15
PRESSURE
AVERAGE
1018.7
HIGH
1020.7
22:35
LOW
1017.3
00:01
DEWPOINT
AVERAGE
5.6
HIGH
9.4
18:34
LOW
0.9
06:22
HUMIDITY
AVERAGE
55
HIGH
86
23:45
LOW
35
06:22
WIND SPEED
AVERAGE
0.8
HIGH
2.5
15:13
WIND GUST
AVERAGE
2.1
HIGH
5.3
15:13
WIND DIRECTION
PREVAILING
NW
46.1%
N
3.5
NE
1.4
E
1.4
SE
5.0
S
26.2
SW
8.5
W
7.1
NW
46.1
PRECIPITATION
RAIN HOUR
0.1
RAIN DAY
0.1
TEMPERATURE (°C)
LOW
10.2
HIGH
20.2
AVERAGE
15.3
PRESSURE (hpa)
LOW
1017.3
HIGH
1020.7
AVERAGE
1018.7
DEVICE